Time,TemperatureF,DewpointF,PressureIn,WindDirection,WindDirectionDegrees,WindSpeedMPH,WindSpeedGustMPH,Humidity,HourlyPrecipIn,Conditions,Clouds,dailyrainin,SoftwareType,DateUTC
2013-05-24 00:00:00,61.7,57.8,29.87,SE,136,0.0,0.0,87,0.00,,SKC,0.00,VWS V13.01,2013-05-24 04:00:00,
2013-05-24 00:01:00,61.7,57.8,29.87,SE,136,0.0,0.0,87,0.00,,SKC,0.00,VWS V13.01,2013-05-24 04:01:00,
2013-05-24 00:03:00,61.7,57.8,29.87,SE,136,0.0,0.0,87,0.00,,SKC,0.00,VWS V13.01,2013-05-24 04:03:00,
2013-05-24 00:08:00,61.5,57.6,29.87,SE,136,0.0,0.0,87,0.00,,SKC,0.00,VWS V13.01,2013-05-24 04:08:00,
2013-05-24 00:13:00,61.5,57.6,29.87,SE,136,0.0,0.0,87,0.00,,SKC,0.00,VWS V13.01,2013-05-24 04:13:00,
2013-05-24 00:18:00,61.5,57.6,29.87,SE,136,0.0,0.0,87,0.00,,SKC,0.00,VWS V13.01,2013-05-24 04:18:00,
2013-05-24 00:23:00,61.5,57.6,29.87,SE,136,0.0,0.0,87,0.00,,SKC,0.00,VWS V13.01,2013-05-24 04:23:00,
2013-05-24 00:28:00,61.3,57.4,29.87,SE,136,0.0,0.0,87,0.00,,SKC,0.00,VWS V13.01,2013-05-24 04:28:00,
2013-05-24 00:33:00,61.3,57.4,29.87,SE,136,0.0,0.0,87,0.00,,SKC,0.00,VWS V13.01,2013-05-24 04:33:00,
2013-05-24 00:38:00,61.3,57.4,29.87,SE,136,0.0,0.0,87,0.00,,SKC,0.00,VWS V13.01,2013-05-24 04:38:00,
2013-05-24 00:43:00,61.3,57.7,29.86,SE,136,0.0,0.0,88,0.00,,SKC,0.00,VWS V13.01,2013-05-24 04:43:00,
2013-05-24 00:48:00,61.3,57.7,29.86,SE,136,0.0,0.0,88,0.00,,SKC,0.00,VWS V13.01,2013-05-24 04:48:00,
2013-05-24 00:53:00,61.3,57.7,29.86,SE,136,0.0,0.0,88,0.00,,SKC,0.00,VWS V13.01,2013-05-24 04:53:00,
2013-05-24 00:58:00,61.3,57.7,29.86,SE,136,0.0,0.0,88,0.00,,SKC,0.00,VWS V13.01,2013-05-24 04:58:00,
2013-05-24 01:03:00,61.3,57.7,29.86,SE,136,0.0,0.0,88,0.00,,SKC,0.00,VWS V13.01,2013-05-24 05:03:00,
2013-05-24 01:08:00,61.3,57.7,29.86,SE,136,0.0,0.0,88,0.00,,SKC,0.00,VWS V13.01,2013-05-24 05:08:00,
2013-05-24 01:13:00,61.5,57.9,29.86,SE,136,0.0,0.0,88,0.00,,SKC,0.00,VWS V13.01,2013-05-24 05:13:00,
2013-05-24 01:18:00,61.3,57.7,29.86,SE,136,0.0,0.0,88,0.00,,SKC,0.00,VWS V13.01,2013-05-24 05:18:00,
2013-05-24 01:23:00,61.3,57.7,29.86,SE,136,0.0,0.0,88,0.00,,SKC,0.00,VWS V13.01,2013-05-24 05:23:00,
2013-05-24 01:28:00,61.5,57.9,29.86,SE,136,0.0,0.0,88,0.00,,SKC,0.00,VWS V13.01,2013-05-24 05:28:00,
2013-05-24 01:33:00,61.3,57.7,29.86,SE,136,0.0,0.0,88,0.00,,SKC,0.00,VWS V13.01,2013-05-24 05:33:00,
2013-05-24 01:38:00,61.3,57.7,29.85,SE,136,0.0,0.0,88,0.00,,SKC,0.00,VWS V13.01,2013-05-24 05:38:00,
2013-05-24 01:43:00,61.3,57.7,29.86,SE,136,0.0,0.0,88,0.00,,SKC,0.00,VWS V13.01,2013-05-24 05:43:00,
2013-05-24 01:48:00,61.3,57.7,29.86,SE,136,0.0,0.0,88,0.00,,SKC,0.00,VWS V13.01,2013-05-24 05:48:00,
2013-05-24 01:53:00,61.3,57.7,29.85,SE,136,0.0,0.0,88,0.00,,SKC,0.00,VWS V13.01,2013-05-24 05:53:00,
2013-05-24 01:58:00,61.3,57.7,29.85,SE,136,0.0,0.0,88,0.00,,SKC,0.00,VWS V13.01,2013-05-24 05:58:00,
2013-05-24 02:03:00,61.3,58.0,29.85,SE,136,0.0,0.0,89,0.00,,SKC,0.00,VWS V13.01,2013-05-24 06:03:00,
2013-05-24 02:08:00,61.1,57.8,29.85,ENE,68,0.0,0.0,89,0.00,,SKC,0.00,VWS V13.01,2013-05-24 06:08:00,
2013-05-24 02:13:00,61.1,57.8,29.85,NNE,24,0.0,0.0,89,0.00,,SKC,0.00,VWS V13.01,2013-05-24 06:13:00,
2013-05-24 02:18:00,61.3,58.0,29.85,NNE,24,0.0,0.0,89,0.00,,SKC,0.00,VWS V13.01,2013-05-24 06:18:00,
2013-05-24 02:23:00,61.1,57.8,29.85,North,1,0.0,0.0,89,0.00,,SKC,0.00,VWS V13.01,2013-05-24 06:23:00,
2013-05-24 02:28:00,61.1,58.2,29.85,North,1,0.0,0.0,90,0.00,,SKC,0.00,VWS V13.01,2013-05-24 06:28:00,
2013-05-24 02:33:00,60.6,57.3,29.85,NE,46,6.9,6.9,89,0.00,,SKC,0.00,VWS V13.01,2013-05-24 06:33:00,
2013-05-24 02:38:00,59.9,56.7,29.86,NNW,338,2.4,2.4,89,0.00,,SKC,0.00,VWS V13.01,2013-05-24 06:38:00,
2013-05-24 02:43:00,59.0,55.5,29.85,NNW,338,4.6,4.6,88,0.00,,SKC,0.00,VWS V13.01,2013-05-24 06:43:00,
2013-05-24 02:48:00,58.8,55.6,29.85,NNW,338,6.2,6.2,89,0.00,,SKC,0.00,VWS V13.01,2013-05-24 06:48:00,
2013-05-24 02:53:00,58.4,55.2,29.85,NNW,338,4.6,4.6,89,0.00,,SKC,0.00,VWS V13.01,2013-05-24 06:53:00,
2013-05-24 02:58:00,57.9,54.7,29.85,NNW,338,0.0,0.0,89,0.00,,SKC,0.00,VWS V13.01,2013-05-24 06:58:00,
2013-05-24 03:03:00,57.7,54.5,29.85,NNW,338,2.9,2.9,89,0.00,,SKC,0.00,VWS V13.01,2013-05-24 07:03:00,
2013-05-24 03:08:00,57.5,54.3,29.85,East,91,0.8,0.8,89,0.00,,SKC,0.00,VWS V13.01,2013-05-24 07:08:00,
2013-05-24 03:13:00,57.0,53.8,29.85,North,1,0.6,1.3,89,0.00,,SKC,0.00,VWS V13.01,2013-05-24 07:13:00,
2013-05-24 03:18:00,56.8,53.6,29.86,North,1,0.0,3.8,89,0.00,,SKC,0.00,VWS V13.01,2013-05-24 07:18:00,
2013-05-24 03:23:00,56.4,53.2,29.86,NNW,338,0.0,0.0,89,0.00,,SKC,0.00,VWS V13.01,2013-05-24 07:23:00,
2013-05-24 03:28:00,56.1,53.2,29.86,NNW,338,2.6,2.6,90,0.02,,SKC,0.02,VWS V13.01,2013-05-24 07:28:00,
2013-05-24 03:33:00,55.9,53.0,29.86,North,1,0.0,0.0,90,0.02,,SKC,0.02,VWS V13.01,2013-05-24 07:33:00,
2013-05-24 03:38:00,55.7,52.8,29.86,North,1,0.0,0.0,90,0.02,,SKC,0.02,VWS V13.01,2013-05-24 07:38:00,
2013-05-24 03:43:00,55.5,52.6,29.86,NW,316,7.8,7.8,90,0.04,,SKC,0.04,VWS V13.01,2013-05-24 07:43:00,
2013-05-24 03:48:00,55.0,52.1,29.86,NNW,338,1.3,1.3,90,0.04,,SKC,0.04,VWS V13.01,2013-05-24 07:48:00,
2013-05-24 03:53:00,54.6,51.7,29.86,North,1,4.9,4.9,90,0.04,,SKC,0.04,VWS V13.01,2013-05-24 07:53:00,
2013-05-24 03:58:00,54.1,51.2,29.86,NW,316,5.5,5.5,90,0.04,,SKC,0.04,VWS V13.01,2013-05-24 07:58:00,
2013-05-24 04:03:00,53.7,50.8,29.86,North,1,5.1,5.1,90,0.04,,SKC,0.04,VWS V13.01,2013-05-24 08:03:00,
2013-05-24 04:08:00,53.4,50.5,29.87,NNW,338,3.8,3.8,90,0.04,,SKC,0.04,VWS V13.01,2013-05-24 08:08:00,
2013-05-24 04:13:00,52.8,50.0,29.88,NW,316,0.0,1.7,90,0.04,,SKC,0.04,VWS V13.01,2013-05-24 08:13:00,
2013-05-24 04:18:00,52.5,49.7,29.88,NE,46,1.3,1.3,90,0.06,,SKC,0.06,VWS V13.01,2013-05-24 08:18:00,
2013-05-24 04:23:00,52.1,49.3,29.87,WNW,294,2.0,2.0,90,0.04,,SKC,0.06,VWS V13.01,2013-05-24 08:23:00,
2013-05-24 04:28:00,51.6,48.8,29.87,NNW,338,0.0,6.2,90,0.06,,SKC,0.08,VWS V13.01,2013-05-24 08:28:00,
2013-05-24 04:33:00,51.4,48.6,29.88,NW,316,0.0,3.1,90,0.06,,SKC,0.08,VWS V13.01,2013-05-24 08:33:00,
2013-05-24 04:38:00,51.4,48.6,29.88,NNW,338,0.0,0.0,90,0.06,,SKC,0.08,VWS V13.01,2013-05-24 08:38:00,
2013-05-24 04:43:00,51.0,48.2,29.88,NNE,24,4.4,4.4,90,0.06,,SKC,0.10,VWS V13.01,2013-05-24 08:43:00,
2013-05-24 04:48:00,50.9,48.1,29.88,ENE,68,0.8,0.8,90,0.06,,SKC,0.10,VWS V13.01,2013-05-24 08:48:00,
2013-05-24 04:53:00,50.7,48.2,29.88,North,1,0.0,0.0,91,0.06,,SKC,0.10,VWS V13.01,2013-05-24 08:53:00,
2013-05-24 04:58:00,50.7,47.9,29.88,North,1,15.8,15.8,90,0.06,,SKC,0.10,VWS V13.01,2013-05-24 08:58:00,
2013-05-24 05:03:00,50.5,47.7,29.88,WSW,248,1.5,15.8,90,0.06,,SKC,0.10,VWS V13.01,2013-05-24 09:03:00,
2013-05-24 05:08:00,50.5,47.7,29.88,NNW,338,2.0,2.0,90,0.06,,SKC,0.10,VWS V13.01,2013-05-24 09:08:00,
2013-05-24 05:13:00,50.3,47.8,29.88,North,1,1.3,5.5,91,0.06,,SKC,0.10,VWS V13.01,2013-05-24 09:13:00,
2013-05-24 05:18:00,50.3,47.8,29.88,NW,316,3.5,6.9,91,0.04,,SKC,0.10,VWS V13.01,2013-05-24 09:18:00,
2013-05-24 05:23:00,50.1,47.6,29.88,NNE,24,0.0,0.0,91,0.02,,SKC,0.10,VWS V13.01,2013-05-24 09:23:00,
2013-05-24 05:28:00,50.1,47.6,29.88,NW,316,2.0,5.5,91,0.02,,SKC,0.10,VWS V13.01,2013-05-24 09:28:00,
2013-05-24 05:33:00,50.0,47.5,29.88,North,1,4.0,7.3,91,0.02,,SKC,0.10,VWS V13.01,2013-05-24 09:33:00,
2013-05-24 05:38:00,49.8,47.3,29.89,NW,316,4.2,4.2,91,0.02,,SKC,0.10,VWS V13.01,2013-05-24 09:38:00,
2013-05-24 05:43:00,49.8,47.3,29.89,NW,316,0.0,0.0,91,0.00,,SKC,0.10,VWS V13.01,2013-05-24 09:43:00,
2013-05-24 05:48:00,49.8,47.3,29.89,NNE,24,0.0,0.0,91,0.00,,SKC,0.10,VWS V13.01,2013-05-24 09:48:00,
2013-05-24 05:53:00,49.8,47.3,29.89,North,1,1.5,1.5,91,0.00,,SKC,0.10,VWS V13.01,2013-05-24 09:53:00,
2013-05-24 05:58:00,49.8,47.3,29.89,NNE,24,0.0,0.0,91,0.00,,SKC,0.10,VWS V13.01,2013-05-24 09:58:00,
2013-05-24 06:03:00,49.8,47.3,29.90,NE,46,3.3,3.3,91,0.00,,SKC,0.10,VWS V13.01,2013-05-24 10:03:00,
2013-05-24 06:08:00,49.8,47.3,29.90,NE,46,2.4,2.4,91,0.00,,SKC,0.10,VWS V13.01,2013-05-24 10:08:00,
2013-05-24 06:13:00,49.6,47.1,29.91,NW,316,0.8,3.3,91,0.00,,SKC,0.10,VWS V13.01,2013-05-24 10:13:00,
2013-05-24 06:18:00,49.6,47.1,29.91,ENE,68,0.0,0.8,91,0.00,,SKC,0.10,VWS V13.01,2013-05-24 10:18:00,
2013-05-24 06:23:00,49.6,47.1,29.91,WNW,294,10.0,10.0,91,0.00,,SKC,0.10,VWS V13.01,2013-05-24 10:23:00,
2013-05-24 06:28:00,49.2,46.7,29.91,NNW,338,1.3,2.2,91,0.00,,SKC,0.10,VWS V13.01,2013-05-24 10:28:00,
2013-05-24 06:33:00,49.1,46.6,29.91,ENE,68,6.0,6.0,91,0.00,,SKC,0.10,VWS V13.01,2013-05-24 10:33:00,
2013-05-24 06:38:00,49.1,46.6,29.92,NNW,338,1.3,1.3,91,0.00,,SKC,0.10,VWS V13.01,2013-05-24 10:38:00,
2013-05-24 06:43:00,48.7,46.2,29.92,NW,316,0.6,6.7,91,0.00,,SKC,0.10,VWS V13.01,2013-05-24 10:43:00,
2013-05-24 06:48:00,48.5,46.0,29.92,NNW,338,3.5,3.5,91,0.00,,SKC,0.10,VWS V13.01,2013-05-24 10:48:00,
2013-05-24 06:53:00,48.3,45.8,29.92,ENE,68,2.9,2.9,91,0.00,,SKC,0.10,VWS V13.01,2013-05-24 10:53:00,
2013-05-24 06:58:00,48.3,45.8,29.92,NNW,338,2.2,5.8,91,0.00,,SKC,0.10,VWS V13.01,2013-05-24 10:58:00,
2013-05-24 07:03:00,48.2,45.7,29.93,NE,46,3.1,3.1,91,0.00,,SKC,0.10,VWS V13.01,2013-05-24 11:03:00,
2013-05-24 07:08:00,48.0,45.5,29.93,NNW,338,1.5,1.5,91,0.00,,SKC,0.10,VWS V13.01,2013-05-24 11:08:00,
2013-05-24 07:13:00,48.0,45.5,29.93,NE,46,3.8,3.8,91,0.00,,SKC,0.10,VWS V13.01,2013-05-24 11:13:00,
2013-05-24 07:18:00,48.0,45.5,29.94,NE,46,8.9,8.9,91,0.00,,SKC,0.10,VWS V13.01,2013-05-24 11:18:00,
2013-05-24 07:23:00,48.0,45.2,29.94,NE,46,5.3,5.3,90,0.00,,SKC,0.10,VWS V13.01,2013-05-24 11:23:00,
2013-05-24 07:28:00,48.0,45.2,29.95,NNW,338,2.0,2.0,90,0.00,,SKC,0.10,VWS V13.01,2013-05-24 11:28:00,
2013-05-24 07:33:00,48.0,45.2,29.95,NNE,24,0.0,0.0,90,0.00,,SKC,0.10,VWS V13.01,2013-05-24 11:33:00,
2013-05-24 07:38:00,48.0,45.2,29.96,NNW,338,0.4,0.4,90,0.00,,SKC,0.10,VWS V13.01,2013-05-24 11:38:00,
2013-05-24 07:43:00,48.0,45.2,29.96,NE,46,0.0,0.0,90,0.00,,SKC,0.10,VWS V13.01,2013-05-24 11:43:00,
2013-05-24 07:48:00,48.0,45.2,29.96,West,271,4.0,4.0,90,0.00,,SKC,0.10,VWS V13.01,2013-05-24 11:48:00,
2013-05-24 07:53:00,48.0,45.2,29.96,NW,316,10.5,10.5,90,0.00,,SKC,0.10,VWS V13.01,2013-05-24 11:53:00,
2013-05-24 07:58:00,47.8,45.0,29.96,NNE,24,0.8,3.8,90,0.00,,SKC,0.10,VWS V13.01,2013-05-24 11:58:00,
2013-05-24 08:03:00,47.8,45.0,29.97,NW,316,4.9,4.9,90,0.00,,SKC,0.10,VWS V13.01,2013-05-24 12:03:00,
2013-05-24 08:08:00,47.6,44.8,29.97,ENE,68,0.0,0.0,90,0.00,,SKC,0.10,VWS V13.01,2013-05-24 12:08:00,
2013-05-24 08:13:00,47.4,44.6,29.97,NNE,24,3.3,3.3,90,0.00,,SKC,0.10,VWS V13.01,2013-05-24 12:13:00,
2013-05-24 08:18:00,47.4,44.6,29.98,NE,46,1.7,1.7,90,0.00,,SKC,0.10,VWS V13.01,2013-05-24 12:18:00,
2013-05-24 08:23:00,47.3,44.5,29.98,NNW,338,6.0,6.0,90,0.00,,SKC,0.10,VWS V13.01,2013-05-24 12:23:00,
2013-05-24 08:28:00,47.1,44.3,29.98,NE,46,0.0,0.0,90,0.00,,SKC,0.10,VWS V13.01,2013-05-24 12:28:00,
2013-05-24 08:33:00,47.1,44.3,29.99,WNW,294,3.3,3.3,90,0.00,,SKC,0.10,VWS V13.01,2013-05-24 12:33:00,
2013-05-24 08:38:00,47.1,44.3,29.99,WNW,294,4.0,4.0,90,0.00,,SKC,0.10,VWS V13.01,2013-05-24 12:38:00,
2013-05-24 08:43:00,46.9,44.1,29.99,NW,316,6.9,6.9,90,0.00,,SKC,0.10,VWS V13.01,2013-05-24 12:43:00,
2013-05-24 08:48:00,46.7,43.9,30.00,NNW,338,12.7,12.7,90,0.00,,SKC,0.10,VWS V13.01,2013-05-24 12:48:00,
2013-05-24 08:53:00,46.5,43.7,30.00,North,1,5.1,5.1,90,0.02,,SKC,0.12,VWS V13.01,2013-05-24 12:53:00,
2013-05-24 08:58:00,46.2,43.4,30.00,ESE,114,4.2,4.2,90,0.04,,SKC,0.14,VWS V13.01,2013-05-24 12:58:00,
2013-05-24 09:03:00,46.0,43.2,30.00,North,1,0.0,0.0,90,0.06,,SKC,0.16,VWS V13.01,2013-05-24 13:03:00,
2013-05-24 09:08:00,46.0,43.5,30.00,NNE,24,1.3,1.3,91,0.06,,SKC,0.16,VWS V13.01,2013-05-24 13:08:00,
2013-05-24 09:13:00,46.0,43.5,30.01,North,1,1.3,1.3,91,0.08,,SKC,0.19,VWS V13.01,2013-05-24 13:13:00,
2013-05-24 09:18:00,46.2,43.7,30.01,NW,316,1.3,1.3,91,0.10,,SKC,0.20,VWS V13.01,2013-05-24 13:18:00,
2013-05-24 09:23:00,46.2,43.7,30.01,NNW,338,2.4,2.4,91,0.10,,SKC,0.20,VWS V13.01,2013-05-24 13:23:00,
2013-05-24 09:28:00,46.2,43.7,30.01,NW,316,5.1,5.1,91,0.12,,SKC,0.22,VWS V13.01,2013-05-24 13:28:00,
2013-05-24 09:33:00,46.2,43.7,30.01,NNW,338,0.0,0.0,91,0.12,,SKC,0.22,VWS V13.01,2013-05-24 13:33:00,
2013-05-24 09:38:00,46.2,43.7,30.02,North,1,0.6,0.6,91,0.12,,SKC,0.22,VWS V13.01,2013-05-24 13:38:00,
2013-05-24 09:43:00,46.2,43.7,30.02,NNW,338,10.7,10.7,91,0.12,,SKC,0.22,VWS V13.01,2013-05-24 13:43:00,
2013-05-24 09:48:00,46.2,43.7,30.03,North,1,3.5,3.5,91,0.12,,SKC,0.22,VWS V13.01,2013-05-24 13:48:00,
2013-05-24 09:53:00,46.2,43.7,30.03,ESE,114,2.4,2.4,91,0.10,,SKC,0.22,VWS V13.01,2013-05-24 13:53:00,
2013-05-24 09:58:00,46.2,43.7,30.03,WNW,294,5.5,5.5,91,0.08,,SKC,0.22,VWS V13.01,2013-05-24 13:58:00,
2013-05-24 10:03:00,46.2,43.7,30.03,North,1,4.0,4.0,91,0.06,,SKC,0.22,VWS V13.01,2013-05-24 14:03:00,
2013-05-24 10:08:00,46.0,43.5,30.03,NNE,24,6.2,6.2,91,0.04,,SKC,0.22,VWS V13.01,2013-05-24 14:08:00,
2013-05-24 10:13:00,46.0,43.2,30.03,NNW,338,6.7,6.7,90,0.06,,SKC,0.24,VWS V13.01,2013-05-24 14:13:00,
2013-05-24 10:18:00,46.0,43.2,30.04,North,1,7.1,7.1,90,0.04,,SKC,0.24,VWS V13.01,2013-05-24 14:18:00,
2013-05-24 10:23:00,46.2,43.4,30.04,North,1,4.0,4.0,90,0.04,,SKC,0.24,VWS V13.01,2013-05-24 14:23:00,
2013-05-24 10:28:00,46.2,43.1,30.04,North,1,4.0,4.0,89,0.02,,SKC,0.24,VWS V13.01,2013-05-24 14:28:00,
2013-05-24 10:33:00,46.2,43.1,30.05,NNW,338,0.6,0.6,89,0.02,,SKC,0.24,VWS V13.01,2013-05-24 14:33:00,
2013-05-24 10:38:00,46.4,43.3,30.05,NNE,24,0.6,0.6,89,0.02,,SKC,0.24,VWS V13.01,2013-05-24 14:38:00,
2013-05-24 10:43:00,46.5,43.1,30.05,NNW,338,1.1,1.1,88,0.02,,SKC,0.24,VWS V13.01,2013-05-24 14:43:00,
2013-05-24 10:48:00,46.5,43.1,30.05,North,1,5.5,5.5,88,0.02,,SKC,0.24,VWS V13.01,2013-05-24 14:48:00,
2013-05-24 10:53:00,46.4,43.0,30.05,NNW,338,2.0,2.0,88,0.02,,SKC,0.24,VWS V13.01,2013-05-24 14:53:00,
2013-05-24 10:58:00,46.5,42.8,30.05,NNW,338,2.2,2.2,87,0.02,,SKC,0.24,VWS V13.01,2013-05-24 14:58:00,
2013-05-24 11:03:00,46.5,42.8,30.06,NNW,338,3.1,3.1,87,0.02,,SKC,0.24,VWS V13.01,2013-05-24 15:03:00,
2013-05-24 11:08:00,46.5,43.1,30.06,NNW,338,0.0,0.0,88,0.00,,SKC,0.24,VWS V13.01,2013-05-24 15:08:00,
2013-05-24 11:13:00,46.5,42.8,30.05,North,1,8.0,8.0,87,0.00,,SKC,0.24,VWS V13.01,2013-05-24 15:13:00,
2013-05-24 11:18:00,46.5,42.8,30.05,NNW,338,4.6,4.6,87,0.00,,SKC,0.24,VWS V13.01,2013-05-24 15:18:00,
2013-05-24 11:23:00,46.5,42.8,30.05,NNW,338,4.0,4.0,87,0.00,,SKC,0.24,VWS V13.01,2013-05-24 15:23:00,
2013-05-24 11:28:00,46.7,43.0,30.05,NNW,338,5.8,5.8,87,0.00,,SKC,0.24,VWS V13.01,2013-05-24 15:28:00,
2013-05-24 11:33:00,46.9,42.9,30.06,NNE,24,6.9,6.9,86,0.00,,SKC,0.24,VWS V13.01,2013-05-24 15:33:00,
2013-05-24 11:38:00,46.9,42.9,30.06,NE,46,0.0,0.0,86,0.00,,SKC,0.24,VWS V13.01,2013-05-24 15:38:00,
2013-05-24 11:43:00,47.1,43.1,30.07,NE,46,1.7,15.6,86,0.00,,SKC,0.24,VWS V13.01,2013-05-24 15:43:00,
2013-05-24 11:48:00,47.1,43.1,30.07,NNW,338,1.5,1.5,86,0.00,,SKC,0.24,VWS V13.01,2013-05-24 15:48:00,
2013-05-24 11:53:00,47.1,42.8,30.07,WNW,294,3.3,3.3,85,0.00,,SKC,0.24,VWS V13.01,2013-05-24 15:53:00,
2013-05-24 11:58:00,46.9,42.9,30.07,NW,316,2.0,7.1,86,0.00,,SKC,0.24,VWS V13.01,2013-05-24 15:58:00,
2013-05-24 12:03:00,46.9,42.6,30.07,NW,316,2.4,2.4,85,0.00,,SKC,0.24,VWS V13.01,2013-05-24 16:03:00,
2013-05-24 12:08:00,47.1,43.1,30.07,NNW,338,10.0,10.0,86,0.00,,SKC,0.24,VWS V13.01,2013-05-24 16:08:00,
2013-05-24 12:13:00,47.1,43.1,30.07,NNW,338,0.0,0.0,86,0.00,,SKC,0.24,VWS V13.01,2013-05-24 16:13:00,
2013-05-24 12:18:00,47.3,43.3,30.08,NW,316,4.2,4.2,86,0.00,,SKC,0.24,VWS V13.01,2013-05-24 16:18:00,
2013-05-24 12:23:00,47.3,43.0,30.08,North,1,0.0,0.0,85,0.00,,SKC,0.24,VWS V13.01,2013-05-24 16:23:00,
2013-05-24 12:28:00,47.3,43.0,30.08,NNW,338,1.3,1.3,85,0.00,,SKC,0.24,VWS V13.01,2013-05-24 16:28:00,
2013-05-24 12:33:00,47.3,43.0,30.08,North,1,10.5,10.5,85,0.00,,SKC,0.24,VWS V13.01,2013-05-24 16:33:00,
2013-05-24 12:38:00,47.4,43.1,30.08,NNW,338,3.1,3.1,85,0.00,,SKC,0.24,VWS V13.01,2013-05-24 16:38:00,
2013-05-24 12:43:00,47.3,43.0,30.08,NW,316,6.2,6.2,85,0.00,,SKC,0.24,VWS V13.01,2013-05-24 16:43:00,
2013-05-24 12:48:00,47.1,43.1,30.08,NW,316,3.5,3.5,86,0.00,,SKC,0.24,VWS V13.01,2013-05-24 16:48:00,
2013-05-24 12:53:00,47.1,43.1,30.08,WNW,294,2.0,2.0,86,0.00,,SKC,0.24,VWS V13.01,2013-05-24 16:53:00,
2013-05-24 12:58:00,47.4,43.1,30.08,NNW,338,3.5,5.1,85,0.00,,SKC,0.24,VWS V13.01,2013-05-24 16:58:00,
2013-05-24 13:03:00,47.3,43.0,30.08,NW,316,4.9,4.9,85,0.00,,SKC,0.24,VWS V13.01,2013-05-24 17:03:00,
2013-05-24 13:08:00,47.1,42.8,30.08,NW,316,7.8,7.8,85,0.00,,SKC,0.24,VWS V13.01,2013-05-24 17:08:00,
2013-05-24 13:13:00,47.1,42.8,30.08,NNE,24,5.8,5.8,85,0.00,,SKC,0.24,VWS V13.01,2013-05-24 17:13:00,
2013-05-24 13:18:00,47.1,42.8,30.09,NW,316,5.5,5.5,85,0.00,,SKC,0.24,VWS V13.01,2013-05-24 17:18:00,
2013-05-24 13:23:00,47.1,42.8,30.09,NW,316,6.2,6.2,85,0.00,,SKC,0.24,VWS V13.01,2013-05-24 17:23:00,
2013-05-24 13:28:00,47.1,42.8,30.09,WNW,294,5.8,5.8,85,0.00,,SKC,0.24,VWS V13.01,2013-05-24 17:28:00,
2013-05-24 13:33:00,46.9,42.3,30.09,NNW,338,0.0,0.0,84,0.00,,SKC,0.24,VWS V13.01,2013-05-24 17:33:00,
2013-05-24 13:38:00,46.7,42.1,30.09,WNW,294,6.2,6.2,84,0.00,,SKC,0.24,VWS V13.01,2013-05-24 17:38:00,
2013-05-24 13:43:00,46.7,42.4,30.09,WNW,294,5.3,6.9,85,0.00,,SKC,0.24,VWS V13.01,2013-05-24 17:43:00,
2013-05-24 13:48:00,46.9,42.9,30.09,NNE,24,5.8,5.8,86,0.00,,SKC,0.24,VWS V13.01,2013-05-24 17:48:00,
2013-05-24 13:53:00,46.9,42.9,30.10,NE,46,3.1,3.1,86,0.00,,SKC,0.24,VWS V13.01,2013-05-24 17:53:00,
2013-05-24 13:58:00,46.9,42.6,30.10,NW,316,8.5,8.5,85,0.00,,SKC,0.24,VWS V13.01,2013-05-24 17:58:00,
2013-05-24 14:03:00,46.5,42.2,30.10,NW,316,6.9,6.9,85,0.00,,SKC,0.24,VWS V13.01,2013-05-24 18:03:00,
2013-05-24 14:08:00,46.4,42.5,30.10,West,271,2.0,2.0,86,0.00,,SKC,0.24,VWS V13.01,2013-05-24 18:08:00,
2013-05-24 14:13:00,46.4,42.5,30.10,NE,46,0.0,8.7,86,0.00,,SKC,0.24,VWS V13.01,2013-05-24 18:13:00,
2013-05-24 14:18:00,46.5,42.5,30.11,NNW,338,1.7,1.7,86,0.00,,SKC,0.24,VWS V13.01,2013-05-24 18:18:00,
2013-05-24 14:23:00,46.5,42.5,30.11,NW,316,1.3,1.3,86,0.00,,SKC,0.24,VWS V13.01,2013-05-24 18:23:00,
2013-05-24 14:28:00,46.2,42.2,30.11,NNE,24,7.8,7.8,86,0.00,,SKC,0.24,VWS V13.01,2013-05-24 18:28:00,
2013-05-24 14:33:00,46.0,42.3,30.11,NW,316,6.0,6.0,87,0.00,,SKC,0.24,VWS V13.01,2013-05-24 18:33:00,
2013-05-24 14:38:00,45.8,42.2,30.11,NW,316,5.8,5.8,87,0.00,,SKC,0.24,VWS V13.01,2013-05-24 18:38:00,
2013-05-24 14:43:00,46.0,42.3,30.12,NNE,24,3.1,4.4,87,0.00,,SKC,0.24,VWS V13.01,2013-05-24 18:43:00,
2013-05-24 14:48:00,46.0,42.3,30.11,NE,46,2.6,2.6,87,0.00,,SKC,0.24,VWS V13.01,2013-05-24 18:48:00,
2013-05-24 14:53:00,46.0,42.3,30.12,NNW,338,5.1,5.1,87,0.00,,SKC,0.24,VWS V13.01,2013-05-24 18:53:00,
2013-05-24 14:58:00,46.0,42.0,30.11,NW,316,8.0,8.0,86,0.00,,SKC,0.24,VWS V13.01,2013-05-24 18:58:00,
2013-05-24 15:03:00,46.0,42.3,30.12,NW,316,4.0,4.0,87,0.00,,SKC,0.24,VWS V13.01,2013-05-24 19:03:00,
2013-05-24 15:08:00,46.0,42.3,30.12,NNE,24,2.2,2.2,87,0.00,,SKC,0.24,VWS V13.01,2013-05-24 19:08:00,
2013-05-24 15:13:00,46.0,42.7,30.12,NE,46,3.1,3.1,88,0.00,,SKC,0.24,VWS V13.01,2013-05-24 19:13:00,
2013-05-24 15:18:00,45.6,42.0,30.11,West,271,4.6,4.6,87,0.00,,SKC,0.24,VWS V13.01,2013-05-24 19:18:00,
2013-05-24 15:23:00,45.3,42.0,30.11,WNW,294,8.9,8.9,88,0.00,,SKC,0.24,VWS V13.01,2013-05-24 19:23:00,
2013-05-24 15:28:00,45.1,41.8,30.12,NNW,338,6.7,6.7,88,0.00,,SKC,0.24,VWS V13.01,2013-05-24 19:28:00,
2013-05-24 15:33:00,45.1,41.8,30.12,NW,316,12.7,12.7,88,0.00,,SKC,0.24,VWS V13.01,2013-05-24 19:33:00,
2013-05-24 15:38:00,45.1,42.1,30.12,NE,46,4.4,4.4,89,0.00,,SKC,0.24,VWS V13.01,2013-05-24 19:38:00,
2013-05-24 15:43:00,45.3,42.3,30.12,WNW,294,8.5,8.5,89,0.00,,SKC,0.24,VWS V13.01,2013-05-24 19:43:00,
2013-05-24 15:48:00,45.1,42.1,30.12,WNW,294,4.2,4.2,89,0.00,,SKC,0.24,VWS V13.01,2013-05-24 19:48:00,
2013-05-24 15:53:00,45.1,42.1,30.12,North,1,9.1,9.1,89,0.00,,SKC,0.24,VWS V13.01,2013-05-24 19:53:00,
2013-05-24 15:58:00,44.9,41.9,30.12,North,1,0.0,5.8,89,0.00,,SKC,0.24,VWS V13.01,2013-05-24 19:58:00,
2013-05-24 16:03:00,44.9,41.9,30.12,NNW,338,3.3,3.3,89,0.02,,SKC,0.26,VWS V13.01,2013-05-24 20:03:00,
2013-05-24 16:08:00,44.9,41.9,30.12,NNW,338,6.0,6.0,89,0.02,,SKC,0.26,VWS V13.01,2013-05-24 20:08:00,
2013-05-24 16:13:00,44.9,41.9,30.12,NW,316,4.4,4.4,89,0.02,,SKC,0.26,VWS V13.01,2013-05-24 20:13:00,
2013-05-24 16:18:00,44.9,41.9,30.13,North,1,2.4,2.4,89,0.02,,SKC,0.26,VWS V13.01,2013-05-24 20:18:00,
2013-05-24 16:23:00,44.9,41.9,30.13,NE,46,5.5,5.5,89,0.02,,SKC,0.26,VWS V13.01,2013-05-24 20:23:00,
2013-05-24 16:28:00,44.9,41.9,30.13,North,1,4.2,4.2,89,0.02,,SKC,0.26,VWS V13.01,2013-05-24 20:28:00,
2013-05-24 16:33:00,44.7,41.7,30.13,WNW,294,0.0,0.0,89,0.02,,SKC,0.26,VWS V13.01,2013-05-24 20:33:00,
2013-05-24 16:38:00,44.7,41.7,30.14,NW,316,2.4,2.4,89,0.02,,SKC,0.26,VWS V13.01,2013-05-24 20:38:00,
2013-05-24 16:43:00,44.7,41.7,30.14,NNE,24,4.9,4.9,89,0.02,,SKC,0.26,VWS V13.01,2013-05-24 20:43:00,
2013-05-24 16:48:00,44.6,41.6,30.14,NNW,338,1.5,1.5,89,0.02,,SKC,0.26,VWS V13.01,2013-05-24 20:48:00,
2013-05-24 16:53:00,44.4,41.4,30.14,North,1,1.1,1.1,89,0.04,,SKC,0.28,VWS V13.01,2013-05-24 20:53:00,
2013-05-24 16:58:00,44.7,42.0,30.14,NW,316,4.0,4.0,90,0.04,,SKC,0.28,VWS V13.01,2013-05-24 20:58:00,
2013-05-24 17:03:00,44.6,41.8,30.14,NW,316,1.3,1.3,90,0.02,,SKC,0.28,VWS V13.01,2013-05-24 21:03:00,
2013-05-24 17:08:00,44.6,41.8,30.14,NNE,24,8.5,8.5,90,0.02,,SKC,0.28,VWS V13.01,2013-05-24 21:08:00,
2013-05-24 17:13:00,44.6,41.6,30.14,NW,316,0.0,4.6,89,0.00,,SKC,0.00,VWS V13.01,2013-05-24 21:13:00,
2013-05-24 17:18:00,44.6,41.6,30.14,NNE,24,0.0,0.0,89,0.00,,SKC,0.00,VWS V13.01,2013-05-24 21:18:00,
2013-05-24 17:23:00,44.4,41.4,30.14,NE,46,4.4,4.4,89,0.00,,SKC,0.00,VWS V13.01,2013-05-24 21:23:00,
2013-05-24 17:28:00,44.4,41.4,30.15,NNW,338,0.0,3.5,89,0.00,,SKC,0.00,VWS V13.01,2013-05-24 21:28:00,
2013-05-24 17:33:00,44.4,41.4,30.15,NW,316,4.6,4.6,89,0.00,,SKC,0.00,VWS V13.01,2013-05-24 21:33:00,
2013-05-24 17:38:00,44.4,41.4,30.15,NNW,338,2.4,2.4,89,0.00,,SKC,0.00,VWS V13.01,2013-05-24 21:38:00,
2013-05-24 17:43:00,44.2,41.2,30.14,NNW,338,9.3,9.3,89,0.02,,SKC,0.02,VWS V13.01,2013-05-24 21:43:00,
2013-05-24 17:48:00,44.2,41.2,30.14,ENE,68,0.0,0.0,89,0.02,,SKC,0.02,VWS V13.01,2013-05-24 21:48:00,
2013-05-24 17:53:00,44.0,41.0,30.14,NW,316,0.4,0.4,89,0.02,,SKC,0.02,VWS V13.01,2013-05-24 21:53:00,
2013-05-24 17:58:00,44.0,41.0,30.15,NNW,338,10.2,10.2,89,0.02,,SKC,0.02,VWS V13.01,2013-05-24 21:58:00,
2013-05-24 18:03:00,44.0,41.3,30.14,ENE,68,5.5,5.5,90,0.02,,SKC,0.02,VWS V13.01,2013-05-24 22:03:00,
2013-05-24 18:08:00,44.0,41.3,30.14,WNW,294,0.0,0.0,90,0.02,,SKC,0.02,VWS V13.01,2013-05-24 22:08:00,
2013-05-24 18:13:00,44.0,41.3,30.14,NNW,338,6.0,6.0,90,0.02,,SKC,0.02,VWS V13.01,2013-05-24 22:13:00,
2013-05-24 18:18:00,44.0,41.3,30.14,NNW,338,2.0,2.0,90,0.04,,SKC,0.04,VWS V13.01,2013-05-24 22:18:00,
2013-05-24 18:23:00,44.0,41.3,30.14,NNW,338,0.0,0.0,90,0.04,,SKC,0.04,VWS V13.01,2013-05-24 22:23:00,
2013-05-24 18:28:00,43.8,41.1,30.14,NNW,338,6.4,6.4,90,0.04,,SKC,0.04,VWS V13.01,2013-05-24 22:28:00,
2013-05-24 18:33:00,44.0,41.3,30.14,NNW,338,2.9,2.9,90,0.04,,SKC,0.04,VWS V13.01,2013-05-24 22:33:00,
2013-05-24 18:38:00,44.0,41.3,30.14,NNW,338,2.2,2.2,90,0.04,,SKC,0.04,VWS V13.01,2013-05-24 22:38:00,
2013-05-24 18:43:00,44.2,41.5,30.14,NNE,24,5.1,5.1,90,0.02,,SKC,0.04,VWS V13.01,2013-05-24 22:43:00,
2013-05-24 18:48:00,44.2,41.5,30.14,NNW,338,6.2,6.2,90,0.02,,SKC,0.04,VWS V13.01,2013-05-24 22:48:00,
2013-05-24 18:53:00,44.2,41.5,30.15,ENE,68,4.4,4.4,90,0.02,,SKC,0.04,VWS V13.01,2013-05-24 22:53:00,
2013-05-24 18:58:00,44.2,41.5,30.14,NW,316,3.5,3.5,90,0.02,,SKC,0.04,VWS V13.01,2013-05-24 22:58:00,
2013-05-24 19:03:00,44.0,41.3,30.15,NNW,338,0.0,0.0,90,0.04,,SKC,0.06,VWS V13.01,2013-05-24 23:03:00,
2013-05-24 19:08:00,44.0,41.3,30.15,SW,226,0.0,0.0,90,0.04,,SKC,0.06,VWS V13.01,2013-05-24 23:08:00,
2013-05-24 19:13:00,43.8,41.1,30.15,North,1,0.0,6.9,90,0.04,,SKC,0.06,VWS V13.01,2013-05-24 23:13:00,
2013-05-24 19:18:00,43.8,41.1,30.15,East,91,0.0,0.0,90,0.02,,SKC,0.06,VWS V13.01,2013-05-24 23:18:00,
2013-05-24 19:23:00,43.8,41.1,30.15,NNW,338,2.2,2.2,90,0.02,,SKC,0.06,VWS V13.01,2013-05-24 23:23:00,
2013-05-24 19:28:00,43.8,41.1,30.15,North,1,1.5,2.0,90,0.04,,SKC,0.08,VWS V13.01,2013-05-24 23:28:00,
2013-05-24 19:33:00,43.8,41.1,30.15,NW,316,3.3,3.3,90,0.04,,SKC,0.08,VWS V13.01,2013-05-24 23:33:00,
2013-05-24 19:38:00,43.8,41.1,30.16,NE,46,8.5,8.5,90,0.04,,SKC,0.08,VWS V13.01,2013-05-24 23:38:00,
2013-05-24 19:43:00,43.8,41.1,30.16,NNW,338,0.0,0.0,90,0.04,,SKC,0.08,VWS V13.01,2013-05-24 23:43:00,
2013-05-24 19:48:00,43.8,41.1,30.16,NNW,338,0.0,0.0,90,0.04,,SKC,0.08,VWS V13.01,2013-05-24 23:48:00,
2013-05-24 19:53:00,43.8,41.1,30.16,ENE,68,3.3,3.3,90,0.04,,SKC,0.08,VWS V13.01,2013-05-24 23:53:00,
2013-05-24 19:58:00,43.8,41.1,30.16,ENE,68,5.8,5.8,90,0.04,,SKC,0.08,VWS V13.01,2013-05-24 23:58:00,
2013-05-24 20:03:00,43.8,41.1,30.16,NW,316,5.5,5.5,90,0.04,,SKC,0.10,VWS V13.01,2013-05-25 00:03:00,
2013-05-24 20:08:00,43.8,41.1,30.16,NE,46,4.2,4.2,90,0.04,,SKC,0.10,VWS V13.01,2013-05-25 00:08:00,
2013-05-24 20:13:00,43.8,41.1,30.16,ENE,68,1.7,1.7,90,0.04,,SKC,0.10,VWS V13.01,2013-05-25 00:13:00,
2013-05-24 20:18:00,43.8,41.1,30.16,NNE,24,0.0,0.0,90,0.04,,SKC,0.10,VWS V13.01,2013-05-25 00:18:00,
2013-05-24 20:23:00,44.0,41.3,30.16,NW,316,4.9,4.9,90,0.04,,SKC,0.10,VWS V13.01,2013-05-25 00:23:00,
2013-05-24 20:28:00,44.2,41.5,30.15,NW,316,3.5,3.5,90,0.04,,SKC,0.12,VWS V13.01,2013-05-25 00:28:00,
2013-05-24 20:33:00,44.2,41.7,30.15,NW,316,0.0,0.0,91,0.04,,SKC,0.12,VWS V13.01,2013-05-25 00:33:00,
2013-05-24 20:38:00,44.2,41.7,30.15,NNW,338,2.4,2.4,91,0.04,,SKC,0.12,VWS V13.01,2013-05-25 00:38:00,
2013-05-24 20:43:00,44.2,41.7,30.16,NW,316,2.0,2.0,91,0.04,,SKC,0.12,VWS V13.01,2013-05-25 00:43:00,
2013-05-24 20:48:00,44.4,41.9,30.16,North,1,4.0,4.0,91,0.04,,SKC,0.12,VWS V13.01,2013-05-25 00:48:00,
2013-05-24 20:53:00,44.4,41.9,30.16,NNW,338,1.1,1.1,91,0.06,,SKC,0.14,VWS V13.01,2013-05-25 00:53:00,
2013-05-24 20:58:00,44.4,41.9,30.16,WNW,294,5.3,5.3,91,0.06,,SKC,0.14,VWS V13.01,2013-05-25 00:58:00,
2013-05-24 21:03:00,44.4,41.9,30.17,North,1,4.4,4.4,91,0.06,,SKC,0.16,VWS V13.01,2013-05-25 01:03:00,
2013-05-24 21:08:00,44.4,41.9,30.16,NNW,338,2.0,2.0,91,0.06,,SKC,0.16,VWS V13.01,2013-05-25 01:08:00,
2013-05-24 21:13:00,44.4,41.9,30.16,WSW,248,0.0,5.5,91,0.06,,SKC,0.16,VWS V13.01,2013-05-25 01:13:00,
2013-05-24 21:18:00,44.2,41.7,30.17,NNE,24,4.4,4.4,91,0.08,,SKC,0.18,VWS V13.01,2013-05-25 01:18:00,
2013-05-24 21:23:00,44.2,41.7,30.16,NNE,24,5.3,5.3,91,0.08,,SKC,0.18,VWS V13.01,2013-05-25 01:23:00,
2013-05-24 21:28:00,44.2,41.7,30.16,NW,316,4.4,4.4,91,0.08,,SKC,0.20,VWS V13.01,2013-05-25 01:28:00,
2013-05-24 21:33:00,44.2,41.7,30.16,NW,316,0.0,0.0,91,0.08,,SKC,0.20,VWS V13.01,2013-05-25 01:33:00,
2013-05-24 21:38:00,44.4,41.9,30.16,NW,316,0.0,0.0,91,0.08,,SKC,0.20,VWS V13.01,2013-05-25 01:38:00,
2013-05-24 21:43:00,44.2,41.7,30.16,West,271,1.1,5.1,91,0.08,,SKC,0.20,VWS V13.01,2013-05-25 01:43:00,
2013-05-24 21:48:00,44.2,41.7,30.17,NNE,24,1.5,1.5,91,0.08,,SKC,0.20,VWS V13.01,2013-05-25 01:48:00,
2013-05-24 21:53:00,44.2,41.7,30.17,NW,316,2.0,2.0,91,0.08,,SKC,0.22,VWS V13.01,2013-05-25 01:53:00,
2013-05-24 21:58:00,44.2,41.7,30.18,NE,46,0.0,1.7,91,0.08,,SKC,0.22,VWS V13.01,2013-05-25 01:58:00,
2013-05-24 22:03:00,44.2,41.7,30.18,NNW,338,2.2,2.2,91,0.06,,SKC,0.22,VWS V13.01,2013-05-25 02:03:00,
2013-05-24 22:08:00,44.0,41.5,30.18,North,1,0.0,0.0,91,0.06,,SKC,0.22,VWS V13.01,2013-05-25 02:08:00,
2013-05-24 22:13:00,44.0,41.5,30.18,WNW,294,3.5,3.5,91,0.08,,SKC,0.24,VWS V13.01,2013-05-25 02:13:00,
2013-05-24 22:18:00,44.2,41.7,30.18,NNE,24,0.0,0.0,91,0.08,,SKC,0.26,VWS V13.01,2013-05-25 02:18:00,
2013-05-24 22:23:00,44.0,41.5,30.18,NNW,338,0.0,0.0,91,0.08,,SKC,0.26,VWS V13.01,2013-05-25 02:23:00,
2013-05-24 22:28:00,44.0,41.5,30.17,NNW,338,2.4,2.4,91,0.08,,SKC,0.28,VWS V13.01,2013-05-25 02:28:00,
2013-05-24 22:33:00,44.2,41.7,30.18,North,1,0.0,0.0,91,0.08,,SKC,0.28,VWS V13.01,2013-05-25 02:33:00,
2013-05-24 22:38:00,44.2,41.7,30.18,NNW,338,1.1,1.1,91,0.10,,SKC,0.30,VWS V13.01,2013-05-25 02:38:00,
2013-05-24 22:43:00,44.2,41.7,30.17,NNE,24,0.0,0.0,91,0.12,,SKC,0.32,VWS V13.01,2013-05-25 02:43:00,
2013-05-24 22:48:00,44.2,41.7,30.17,NNW,338,2.9,2.9,91,0.12,,SKC,0.32,VWS V13.01,2013-05-25 02:48:00,
2013-05-24 22:53:00,44.2,41.7,30.17,NNW,338,0.0,0.0,91,0.12,,SKC,0.35,VWS V13.01,2013-05-25 02:53:00,
2013-05-24 22:58:00,44.2,41.7,30.17,NNW,338,0.0,0.0,91,0.12,,SKC,0.35,VWS V13.01,2013-05-25 02:58:00,
2013-05-24 23:03:00,44.4,41.9,30.17,NE,46,0.0,0.0,91,0.16,,SKC,0.39,VWS V13.01,2013-05-25 03:03:00,
2013-05-24 23:08:00,44.4,41.9,30.17,NE,46,5.8,5.8,91,0.14,,SKC,0.39,VWS V13.01,2013-05-25 03:08:00,
2013-05-24 23:13:00,44.4,41.9,30.17,North,1,4.2,4.2,91,0.16,,SKC,0.41,VWS V13.01,2013-05-25 03:13:00,
2013-05-24 23:18:00,44.4,41.9,30.17,North,1,3.3,3.3,91,0.16,,SKC,0.43,VWS V13.01,2013-05-25 03:18:00,
2013-05-24 23:23:00,44.4,41.9,30.18,WSW,248,2.6,2.6,91,0.14,,SKC,0.43,VWS V13.01,2013-05-25 03:23:00,
2013-05-24 23:28:00,44.4,41.9,30.18,WNW,294,3.1,4.2,91,0.18,,SKC,0.47,VWS V13.01,2013-05-25 03:28:00,
2013-05-24 23:33:00,44.4,41.9,30.18,North,1,6.2,6.2,91,0.16,,SKC,0.47,VWS V13.01,2013-05-25 03:33:00,
2013-05-24 23:38:00,44.4,41.9,30.18,NNW,338,6.2,6.2,91,0.18,,SKC,0.49,VWS V13.01,2013-05-25 03:38:00,
2013-05-24 23:43:00,44.4,41.9,30.17,NW,316,2.9,6.4,91,0.18,,SKC,0.51,VWS V13.01,2013-05-25 03:43:00,
2013-05-24 23:48:00,44.4,41.9,30.17,NNW,338,0.0,0.0,91,0.18,,SKC,0.51,VWS V13.01,2013-05-25 03:48:00,
2013-05-24 23:53:00,44.4,41.9,30.17,ENE,68,1.7,1.7,91,0.16,,SKC,0.51,VWS V13.01,2013-05-25 03:53:00,
2013-05-24 23:58:00,44.2,41.7,30.17,NW,316,8.7,9.3,91,0.14,,SKC,0.51,VWS V13.01,2013-05-25 03:58:00,